Gary, IN (46409)

1:44 PM CDT on August 29, 2015 (GMT -0500)
BarringtonRidge | | Change Station
CLOSE
Current Station
Personal Weather Station
Location: Hobart, IN
Elevation: 654 ft
Nearby Weather Stations

Elev 654 ft 41.51 °N, 87.25 °W | Updated 4 seconds ago

Overcast
Overcast
75.7 °F
Feels Like 78 °F
N
2.3
Wind Variable Wind from SSE
Gusts 6.3 mph

Today
High -- | Low -- °F
--% Chance of Precip.
Yesterday
High -- | Low -- °F
Precip. -- in
6:12 AM 7:27 PM
Full, 100% visible
Pressure 30.05 in
Visibility 10.0 miles
Clouds Overcast 6000 ft
Heat Index 78 °F
Dew Point 56 °F
Humidity 50%
Rainfall 0.04 in
Snow Depth Not available.
UV 3 out of 12
Pollen 1.10 out of 12
Air Quality Not available.
Flu Activity Not available.
METAR KGYY 291745Z 17005KT 10SM OVC060 24/18 A3005
Pressure 30.05 in
Visibility 10.0 miles
Clouds Overcast 6000 ft
Heat Index 78 °F
Dew Point 56 °F
Humidity 50%
Rainfall 0.04 in
Snow Depth Not available.
UV 3 out of 12
Pollen 1.10 out of 12
Air Quality Not available.
Flu Activity Not available.
METAR KGYY 291745Z 17005KT 10SM OVC060 24/18 A3005

10-Day Weather Forecast

×

Almanac

Astronomy

Aug. 29, 2015 Rise Set
Actual Time
Civil Twilight
Nautical Twilight
Astronomical Twilight
Moon
Length of Visible Light
Length of Day
Tomorrow will be .
, % of the Moon is Illuminated

Today's Extremes

State Highs State Lows

Community

WunderPhotos

Upload Photos

1,850,764 photos uploaded!

WunderBlogs® & News

Nearby

Air Quality

  Air Quality AQ Index Pollutant
Not available.

Snow Depth

Station Depth Elevation

Earthquake Activity

City Distance Mag. Time & Date
Minimum magnitude displayed is 2.5.

Coastal Water Temperatures

Place Temperature

Stations

Nearby Weather Stations

Station Location Temp. Windchill Dew Point Humidity Wind Precip. Elev Updated Type